createdAt,value
2019-03-13T00:01:49.264Z,66.42
2019-03-13T00:04:18.430Z,67.74
2019-03-13T00:06:47.591Z,68.53
2019-03-13T00:09:16.807Z,69.33
2019-03-13T00:11:46.012Z,69.84
2019-03-13T00:14:15.184Z,69.33
2019-03-13T00:16:44.352Z,69.85
2019-03-13T00:19:13.525Z,70.44
2019-03-13T00:21:42.713Z,70.63
2019-03-13T00:24:11.876Z,70.86
2019-03-13T00:26:41.025Z,71.21
2019-03-13T00:29:10.178Z,71.33
2019-03-13T00:31:39.382Z,69.56
2019-03-13T00:34:08.543Z,68.19
2019-03-13T00:36:37.705Z,68.23
2019-03-13T00:39:07.860Z,68.77
2019-03-13T00:41:37.057Z,70.47
2019-03-13T00:44:06.223Z,68.30
2019-03-13T00:46:35.452Z,68.38
2019-03-13T00:49:04.833Z,70.11
2019-03-13T00:51:36.804Z,69.86
2019-03-13T00:54:04.965Z,71.00
2019-03-13T00:56:34.359Z,71.54
2019-03-13T00:59:03.518Z,71.75
2019-03-13T01:01:57.539Z,72.15
2019-03-13T01:04:30.136Z,73.47
2019-03-13T01:07:02.389Z,74.53
2019-03-13T01:09:31.590Z,74.81
2019-03-13T01:12:01.530Z,75.35
2019-03-13T01:14:30.710Z,75.79
2019-03-13T01:16:59.940Z,75.70
2019-03-13T01:19:29.076Z,75.37
2019-03-13T01:21:58.280Z,75.10
2019-03-13T01:24:27.921Z,75.40
2019-03-13T01:26:57.095Z,75.55
2019-03-13T01:29:26.264Z,75.25
2019-03-13T01:32:23.746Z,75.50
2019-03-13T01:35:04.731Z,77.21
2019-03-13T01:37:33.899Z,78.57
2019-03-13T01:40:03.107Z,79.09
2019-03-13T01:42:32.326Z,77.22
2019-03-13T01:45:01.559Z,77.86
2019-03-13T01:47:30.707Z,77.97
2019-03-13T01:49:59.876Z,77.92
2019-03-13T01:52:32.185Z,76.61
2019-03-13T01:54:59.992Z,77.17
2019-03-13T01:57:29.212Z,76.74
2019-03-13T01:59:58.536Z,76.52
2019-03-13T02:02:27.715Z,76.92
2019-03-13T02:04:56.921Z,76.48
2019-03-13T02:07:26.192Z,76.62
2019-03-13T02:09:55.405Z,76.27
2019-03-13T02:12:24.569Z,76.70
2019-03-13T02:14:53.763Z,77.05
2019-03-13T02:17:22.947Z,75.59
2019-03-13T02:19:52.122Z,76.40
2019-03-13T02:22:21.313Z,76.54
2019-03-13T02:24:50.520Z,76.80
2019-03-13T02:27:19.689Z,77.05
2019-03-13T02:29:48.892Z,77.27
2019-03-13T02:32:18.027Z,77.01
2019-03-13T02:34:47.199Z,77.10
2019-03-13T02:37:16.383Z,77.05
2019-03-13T02:39:45.534Z,77.22
2019-03-13T02:42:14.799Z,77.24
2019-03-13T02:44:43.994Z,77.00
2019-03-13T02:47:13.172Z,76.80
2019-03-13T02:49:42.331Z,76.51
2019-03-13T02:52:11.507Z,76.50
2019-03-13T02:54:40.638Z,76.29
2019-03-13T02:57:09.785Z,76.23
2019-03-13T02:59:38.987Z,75.58
2019-03-13T03:02:25.790Z,75.45
2019-03-13T03:04:56.280Z,75.52
2019-03-13T03:07:25.570Z,76.27
2019-03-13T03:09:54.761Z,75.42
2019-03-13T03:12:23.894Z,75.47
2019-03-13T03:15:08.441Z,75.70
2019-03-13T03:17:37.697Z,74.68
2019-03-13T03:20:09.631Z,75.83
2019-03-13T03:22:38.881Z,76.18
2019-03-13T03:25:08.502Z,77.09
2019-03-13T03:27:37.632Z,77.07
2019-03-13T03:30:07.862Z,76.33
2019-03-13T03:32:37.135Z,76.29
2019-03-13T03:35:06.662Z,76.48
2019-03-13T03:37:35.817Z,77.01
2019-03-13T03:40:05.510Z,77.44
2019-03-13T03:42:34.673Z,78.20
2019-03-13T03:45:03.970Z,78.86
2019-03-13T03:47:33.201Z,78.65
2019-03-13T03:50:02.363Z,78.64
2019-03-13T03:52:31.565Z,78.43
2019-03-13T03:55:00.742Z,78.61
2019-03-13T03:57:29.879Z,79.00
2019-03-13T03:59:59.141Z,79.11
2019-03-13T04:02:29.539Z,78.88
2019-03-13T04:04:58.802Z,79.52
2019-03-13T04:07:28.002Z,80.10
2019-03-13T04:09:57.155Z,79.67
2019-03-13T04:12:26.315Z,79.83
2019-03-13T04:14:55.579Z,79.88
2019-03-13T04:17:24.768Z,79.61
2019-03-13T04:19:53.920Z,80.44
2019-03-13T04:22:23.078Z,80.81
2019-03-13T04:24:52.712Z,80.92
2019-03-13T04:27:21.923Z,81.09
2019-03-13T04:29:51.081Z,83.64
2019-03-13T04:32:20.262Z,85.13
2019-03-13T04:34:49.408Z,85.49
2019-03-13T04:37:18.551Z,85.90
2019-03-13T04:39:47.756Z,84.89
2019-03-13T04:42:16.923Z,85.35
2019-03-13T04:44:46.095Z,86.13
2019-03-13T04:47:15.266Z,85.61
2019-03-13T04:49:44.425Z,84.51
2019-03-13T04:52:13.602Z,83.13
2019-03-13T04:54:42.778Z,83.23
2019-03-13T04:57:11.953Z,83.82
2019-03-13T04:59:41.084Z,82.91
2019-03-13T05:02:10.189Z,81.87
2019-03-13T05:04:39.321Z,81.38
2019-03-13T05:07:08.463Z,80.56
2019-03-13T05:09:39.421Z,80.58
2019-03-13T05:12:08.578Z,80.07
2019-03-13T05:14:37.772Z,78.60
2019-03-13T05:17:06.900Z,79.10
2019-03-13T05:19:36.060Z,79.25
2019-03-13T05:22:05.486Z,79.12
2019-03-13T05:24:34.631Z,78.89
2019-03-13T05:27:03.816Z,77.78
2019-03-13T05:29:33.074Z,78.83
2019-03-13T05:32:02.243Z,78.85
2019-03-13T05:34:31.402Z,79.03
2019-03-13T05:37:00.616Z,78.35
2019-03-13T05:39:30.058Z,77.68
2019-03-13T05:41:59.232Z,76.88
2019-03-13T05:44:28.380Z,76.84
2019-03-13T05:46:57.575Z,76.78
2019-03-13T05:49:26.779Z,75.89
2019-03-13T05:51:55.977Z,75.63
2019-03-13T05:54:25.119Z,74.08
2019-03-13T05:56:54.299Z,74.29
2019-03-13T05:59:23.677Z,74.08
2019-03-13T06:01:52.842Z,74.07
2019-03-13T06:04:22.009Z,72.63
2019-03-13T06:06:51.184Z,71.78
2019-03-13T06:09:20.385Z,71.88
2019-03-13T06:11:49.561Z,71.12
2019-03-13T06:14:18.731Z,72.01
2019-03-13T06:16:47.871Z,72.68
2019-03-13T06:19:17.018Z,70.63
2019-03-13T06:21:46.256Z,69.58
2019-03-13T06:24:15.426Z,70.92
2019-03-13T06:26:44.583Z,70.09
2019-03-13T06:29:13.776Z,70.75
2019-03-13T06:31:44.460Z,68.91
2019-03-13T06:34:13.639Z,69.36
2019-03-13T06:36:42.830Z,68.54
2019-03-13T06:39:12.066Z,68.18
2019-03-13T06:41:41.246Z,69.28
2019-03-13T06:44:10.408Z,69.56
2019-03-13T06:46:39.721Z,67.89
2019-03-13T06:49:08.869Z,68.23
2019-03-13T06:51:38.338Z,69.06
2019-03-13T06:54:07.468Z,68.83
2019-03-13T06:56:36.684Z,68.53
2019-03-13T06:59:30.981Z,69.00
2019-03-13T07:02:15.866Z,69.27
2019-03-13T07:05:04.647Z,69.96
2019-03-13T07:07:51.888Z,70.67
2019-03-13T07:10:52.423Z,70.38
2019-03-13T07:13:52.751Z,70.42
2019-03-13T07:16:29.701Z,70.94
2019-03-13T07:19:16.399Z,71.41
2019-03-13T07:22:13.642Z,71.74
2019-03-13T07:25:00.625Z,71.15
2019-03-13T07:28:06.275Z,70.95
2019-03-13T07:30:54.402Z,72.75
2019-03-13T07:33:47.073Z,76.06
2019-03-13T07:36:35.200Z,79.28
2019-03-13T07:39:19.710Z,80.32
2019-03-13T07:42:07.845Z,83.94
2019-03-13T07:44:54.448Z,85.33
2019-03-13T07:47:54.883Z,84.43
2019-03-13T07:50:43.035Z,85.64
2019-03-13T07:53:23.559Z,86.39
2019-03-13T07:56:23.810Z,86.50
2019-03-13T07:59:10.636Z,86.00
2019-03-13T08:01:49.925Z,85.12
2019-03-13T08:04:33.593Z,84.87
2019-03-13T08:07:27.840Z,82.91
2019-03-13T08:10:13.700Z,80.22
2019-03-13T08:12:50.640Z,80.46
2019-03-13T08:15:42.614Z,80.97
2019-03-13T08:18:30.752Z,79.81
2019-03-13T08:21:19.890Z,78.27
2019-03-13T08:24:00.921Z,75.62
2019-03-13T08:26:45.686Z,76.20
2019-03-13T08:29:20.618Z,75.82
2019-03-13T08:32:01.842Z,73.00
2019-03-13T08:34:46.383Z,73.53
2019-03-13T08:37:43.375Z,71.91
2019-03-13T08:40:34.003Z,67.70
2019-03-13T08:43:20.850Z,63.34
2019-03-13T08:46:27.427Z,64.93
2019-03-13T08:49:18.615Z,66.55
2019-03-13T08:52:00.341Z,66.46
2019-03-13T08:54:51.564Z,65.67
2019-03-13T08:57:38.601Z,62.35
2019-03-13T09:00:39.784Z,60.91
2019-03-13T09:03:24.749Z,61.33
2019-03-13T09:06:20.708Z,61.79
2019-03-13T09:09:11.845Z,59.77
2019-03-13T09:12:02.885Z,57.44
2019-03-13T09:14:53.060Z,57.99
2019-03-13T09:17:56.302Z,57.42
2019-03-13T09:20:50.504Z,57.25
2019-03-13T09:23:44.809Z,54.48
2019-03-13T09:26:29.717Z,57.61
2019-03-13T09:29:08.041Z,57.18
2019-03-13T09:32:14.705Z,56.14
2019-03-13T09:34:56.591Z,52.83
2019-03-13T09:37:50.082Z,54.12
2019-03-13T09:40:34.309Z,52.18
2019-03-13T09:43:26.190Z,54.59
2019-03-13T09:46:26.511Z,55.03
2019-03-13T09:49:17.803Z,53.09
2019-03-13T09:52:05.925Z,51.60
2019-03-13T09:54:44.476Z,50.25
2019-03-13T09:57:35.402Z,53.93
2019-03-13T10:00:30.610Z,52.89
2019-03-13T10:03:31.188Z,49.88
2019-03-13T10:06:18.238Z,49.84
2019-03-13T10:09:09.831Z,47.72
2019-03-13T10:12:16.192Z,48.64
2019-03-13T10:15:10.135Z,50.35
2019-03-13T10:17:58.309Z,51.34
2019-03-13T10:20:52.609Z,52.49
2019-03-13T10:23:46.700Z,52.81
2019-03-13T10:26:35.870Z,53.13
2019-03-13T10:29:23.293Z,53.90
2019-03-13T10:32:11.421Z,54.53
2019-03-13T10:35:14.929Z,54.96
2019-03-13T10:38:14.158Z,54.36
2019-03-13T10:41:00.852Z,53.53
2019-03-13T10:43:57.877Z,53.88
2019-03-13T10:46:48.814Z,54.30
2019-03-13T10:49:31.142Z,53.91
2019-03-13T10:52:37.683Z,48.45
2019-03-13T10:55:22.937Z,47.44
2019-03-13T10:58:11.147Z,47.02
2019-03-13T11:00:59.357Z,48.93
2019-03-13T11:03:46.456Z,50.98
2019-03-13T11:06:33.542Z,51.83
2019-03-13T11:09:30.553Z,51.21
2019-03-13T11:12:12.435Z,52.83
2019-03-13T11:14:56.898Z,53.58
2019-03-13T11:17:45.202Z,52.99
2019-03-13T11:20:32.461Z,54.34
2019-03-13T11:23:35.704Z,54.34
2019-03-13T11:26:23.874Z,56.43
2019-03-13T11:29:08.552Z,58.84
2019-03-13T11:31:56.701Z,61.37
2019-03-13T11:34:46.127Z,64.29
2019-03-13T11:37:29.805Z,62.81
2019-03-13T11:40:22.710Z,72.81
2019-03-13T11:56:56.971Z,72.33
2019-03-13T11:59:51.285Z,72.36
2019-03-13T12:02:29.997Z,72.88
2019-03-13T12:05:17.264Z,69.79
2019-03-13T12:11:07.416Z,71.24
2019-03-13T12:43:29.951Z,59.32
2019-03-13T12:50:04.852Z,57.97
2019-03-13T12:52:51.751Z,57.71
2019-03-13T12:55:50.969Z,57.37
2019-03-13T12:58:26.945Z,59.19
2019-03-13T13:01:21.084Z,59.82
2019-03-13T13:04:12.290Z,61.33
2019-03-13T13:07:00.589Z,60.76
2019-03-13T13:09:57.761Z,60.64
2019-03-13T13:12:51.770Z,59.09
2019-03-13T13:15:35.644Z,60.20
2019-03-13T13:18:23.793Z,59.48
2019-03-13T13:20:52.942Z,58.11
2019-03-13T13:23:22.163Z,56.17
2019-03-13T13:25:51.330Z,56.53
2019-03-13T13:28:20.565Z,56.72
2019-03-13T13:30:49.730Z,56.77
2019-03-13T13:33:18.916Z,54.65
2019-03-13T13:35:48.188Z,54.31
2019-03-13T13:38:17.577Z,51.97
2019-03-13T13:40:46.727Z,53.38
2019-03-13T13:43:15.921Z,53.73
2019-03-13T13:45:58.633Z,53.54
2019-03-13T13:48:27.801Z,53.51
2019-03-13T13:50:57.003Z,55.22
2019-03-13T13:53:26.273Z,54.58
2019-03-13T13:55:55.473Z,54.62
2019-03-13T13:58:24.748Z,55.52
2019-03-13T14:00:54.074Z,56.04
2019-03-13T14:03:23.254Z,55.62
2019-03-13T14:05:52.446Z,54.89
2019-03-13T14:08:21.612Z,54.52
2019-03-13T14:10:50.798Z,55.53
2019-03-13T14:13:19.940Z,56.22
2019-03-13T14:15:49.333Z,55.56
2019-03-13T14:18:18.587Z,56.27
2019-03-13T14:20:47.912Z,55.40
2019-03-13T14:23:17.124Z,56.25
2019-03-13T14:25:46.296Z,56.49
2019-03-13T14:28:15.523Z,55.30
2019-03-13T14:30:45.221Z,55.25
2019-03-13T14:33:15.553Z,54.85
2019-03-13T14:35:46.314Z,54.76
2019-03-13T14:38:15.804Z,55.67
2019-03-13T14:40:45.133Z,55.84
2019-03-13T14:43:20.125Z,55.52
2019-03-13T14:45:50.315Z,54.94
2019-03-13T14:48:19.489Z,55.42
2019-03-13T14:50:48.619Z,55.88
2019-03-13T14:53:17.826Z,57.12
2019-03-13T14:55:47.002Z,58.68
2019-03-13T14:58:16.131Z,58.64
2019-03-13T15:00:45.308Z,57.95
2019-03-13T15:03:14.563Z,57.38
2019-03-13T15:05:43.769Z,56.95
2019-03-13T15:08:12.907Z,56.92
2019-03-13T15:10:42.129Z,57.12
2019-03-13T15:13:11.344Z,57.05
2019-03-13T15:15:40.529Z,57.40
2019-03-13T15:18:09.719Z,58.52
2019-03-13T15:20:39.003Z,58.78
2019-03-13T15:23:08.277Z,59.11
2019-03-13T15:25:37.480Z,59.68
2019-03-13T15:28:06.747Z,59.27
2019-03-13T15:30:36.028Z,60.05
2019-03-13T15:33:05.319Z,60.33
2019-03-13T15:35:34.501Z,60.97
2019-03-13T15:38:03.729Z,60.94
2019-03-13T15:40:32.942Z,61.48
2019-03-13T15:43:02.208Z,61.46
2019-03-13T15:45:31.407Z,61.59
2019-03-13T15:48:00.611Z,61.36
2019-03-13T15:50:30.838Z,61.35
2019-03-13T15:52:59.960Z,62.23
2019-03-13T15:55:29.104Z,62.11
2019-03-13T15:57:58.378Z,62.11
2019-03-13T16:00:27.799Z,62.14
2019-03-13T16:02:56.983Z,61.82
2019-03-13T16:05:26.296Z,62.00
2019-03-13T16:07:55.464Z,62.05
2019-03-13T16:10:24.724Z,61.66
2019-03-13T16:12:55.804Z,61.83
2019-03-13T16:15:26.564Z,61.56
2019-03-13T16:17:55.990Z,61.54
2019-03-13T16:20:25.160Z,61.92
2019-03-13T16:22:56.962Z,61.74
2019-03-13T16:25:27.398Z,61.44
2019-03-13T16:27:56.636Z,61.10
2019-03-13T16:30:26.810Z,61.69
2019-03-13T16:32:55.996Z,61.66
2019-03-13T16:35:26.620Z,61.76
2019-03-13T16:37:56.029Z,60.54
2019-03-13T16:40:25.196Z,60.76
2019-03-13T16:42:54.427Z,60.64
2019-03-13T16:45:23.726Z,61.11
2019-03-13T16:47:53.104Z,61.32
2019-03-13T16:50:22.417Z,61.58
2019-03-13T16:52:51.581Z,61.71
2019-03-13T16:55:20.752Z,61.93
2019-03-13T16:57:50.128Z,62.58
2019-03-13T17:00:21.402Z,62.91
2019-03-13T17:02:50.576Z,63.18
2019-03-13T17:05:20.182Z,63.43
2019-03-13T17:07:50.290Z,63.65
2019-03-13T17:10:19.927Z,63.51
2019-03-13T17:12:49.168Z,63.48
2019-03-13T17:15:19.864Z,63.33
2019-03-13T17:17:49.111Z,63.76
2019-03-13T17:20:20.395Z,63.84
2019-03-13T17:22:49.601Z,63.85
2019-03-13T17:25:19.224Z,63.84
2019-03-13T17:27:48.765Z,63.90
2019-03-13T17:30:20.085Z,64.81
2019-03-13T17:32:49.480Z,65.98
2019-03-13T17:35:18.881Z,65.93
2019-03-13T17:37:48.241Z,66.58
2019-03-13T17:40:19.087Z,66.65
2019-03-13T17:42:48.344Z,67.54
2019-03-13T17:45:19.125Z,66.81
2019-03-13T17:47:48.368Z,67.15
2019-03-13T17:50:18.083Z,67.53
2019-03-13T17:52:47.397Z,69.18
2019-03-13T17:55:16.771Z,70.52
2019-03-13T17:57:46.044Z,71.37
2019-03-13T18:00:20.962Z,73.05
2019-03-13T18:02:50.201Z,73.78
2019-03-13T18:05:19.535Z,74.83
2019-03-13T18:07:48.767Z,76.79
2019-03-13T18:10:18.677Z,78.05
2019-03-13T18:12:48.249Z,79.42
2019-03-13T18:15:18.378Z,81.12
2019-03-13T18:17:47.630Z,83.08
2019-03-13T18:20:17.903Z,86.74
2019-03-13T18:22:47.196Z,90.29
2019-03-13T18:25:18.425Z,92.51
2019-03-13T18:27:47.952Z,93.58
2019-03-13T18:30:19.196Z,96.54
2019-03-13T18:32:48.517Z,95.53
2019-03-13T18:35:18.152Z,95.79
2019-03-13T18:37:47.481Z,95.70
2019-03-13T18:40:17.248Z,95.14
2019-03-13T18:42:46.595Z,95.28
2019-03-13T18:45:17.865Z,96.33
2019-03-13T18:47:47.125Z,96.61
2019-03-13T18:50:16.891Z,97.18
2019-03-13T18:52:46.210Z,97.52
2019-03-13T18:55:17.011Z,97.99
2019-03-13T18:57:46.237Z,98.00
2019-03-13T19:00:18.863Z,98.18
2019-03-13T19:02:48.090Z,98.45
2019-03-13T19:05:17.304Z,98.31
2019-03-13T19:07:46.816Z,98.48
2019-03-13T19:10:16.341Z,98.56
2019-03-13T19:12:45.568Z,98.33
2019-03-13T19:15:19.465Z,98.20
2019-03-13T19:17:48.582Z,98.88
2019-03-13T19:20:19.129Z,97.54
2019-03-13T19:22:48.334Z,95.63
2019-03-13T19:25:17.588Z,95.53
2019-03-13T19:27:46.783Z,95.78
2019-03-13T19:30:21.189Z,95.42
2019-03-13T19:32:50.629Z,94.55
2019-03-13T19:35:20.187Z,94.26
2019-03-13T19:37:49.562Z,94.19
2019-03-13T19:40:18.860Z,93.81
2019-03-13T19:42:48.130Z,94.34
2019-03-13T19:45:26.216Z,94.48
2019-03-13T19:47:55.483Z,95.60
2019-03-13T19:50:27.923Z,95.27
2019-03-13T19:52:55.820Z,96.57
2019-03-13T19:55:25.029Z,97.67
2019-03-13T19:57:54.306Z,97.29
2019-03-13T20:00:25.037Z,97.32
2019-03-13T20:03:00.062Z,98.25
2019-03-13T20:05:25.583Z,99.24
2019-03-13T20:07:54.834Z,98.20
2019-03-13T20:10:25.014Z,97.73
2019-03-13T20:12:54.217Z,99.69
2019-03-13T20:15:23.964Z,100.00
2019-03-13T20:17:53.189Z,99.38
2019-03-13T20:20:24.123Z,99.09
2019-03-13T20:22:57.077Z,100.00
2019-03-13T20:25:26.128Z,100.00
2019-03-13T20:27:55.308Z,100.00
2019-03-13T20:30:24.818Z,100.00
2019-03-13T20:32:54.129Z,100.00
2019-03-13T20:35:23.476Z,100.00
2019-03-13T20:37:52.782Z,100.00
2019-03-13T20:40:22.206Z,100.00
2019-03-13T20:42:51.428Z,100.00
2019-03-13T20:45:22.060Z,100.00
2019-03-13T20:47:51.413Z,100.00
2019-03-13T20:50:21.038Z,100.00
2019-03-13T20:52:50.355Z,100.00
2019-03-13T20:55:19.625Z,100.00
2019-03-13T20:57:48.871Z,100.00
2019-03-13T21:00:22.577Z,100.00
2019-03-13T21:02:52.295Z,99.44
2019-03-13T21:05:21.870Z,100.00
2019-03-13T21:07:51.191Z,100.00
2019-03-13T21:10:20.444Z,100.00
2019-03-13T21:12:49.680Z,100.00
2019-03-13T21:15:18.978Z,100.00
2019-03-13T21:17:48.345Z,100.00
2019-03-13T21:20:17.961Z,100.00
2019-03-13T21:22:47.218Z,100.00
2019-03-13T21:25:16.492Z,100.00
2019-03-13T21:27:47.696Z,100.00
2019-03-13T21:30:19.116Z,100.00
2019-03-13T21:32:48.380Z,100.00
2019-03-13T21:35:17.564Z,100.00
2019-03-13T21:37:46.903Z,100.00
2019-03-13T21:40:16.533Z,100.00
2019-03-13T21:42:45.846Z,100.00
2019-03-13T21:45:22.195Z,100.00
2019-03-13T21:47:46.150Z,100.00
2019-03-13T21:50:15.858Z,100.00
2019-03-13T21:52:45.064Z,100.00
2019-03-13T21:55:14.413Z,100.00
2019-03-13T21:57:43.655Z,100.00
2019-03-13T22:00:19.032Z,100.00
2019-03-13T22:02:48.225Z,100.00
2019-03-13T22:05:25.878Z,100.00
2019-03-13T22:07:48.389Z,100.00
2019-03-13T22:10:18.520Z,100.00
2019-03-13T22:12:47.753Z,100.00
2019-03-13T22:15:17.152Z,100.00
2019-03-13T22:17:46.341Z,100.00
2019-03-13T22:20:15.955Z,100.00
2019-03-13T22:22:45.254Z,100.00
2019-03-13T22:25:14.662Z,100.00
2019-03-13T22:27:44.143Z,100.00
2019-03-13T22:30:18.669Z,100.00
2019-03-13T22:32:47.864Z,100.00
2019-03-13T22:35:17.459Z,100.00
2019-03-13T22:37:46.677Z,100.00
2019-03-13T22:40:16.295Z,100.00
2019-03-13T22:42:45.797Z,100.00
2019-03-13T22:45:15.053Z,100.00
2019-03-13T22:47:44.318Z,100.00
2019-03-13T22:50:21.100Z,100.00
2019-03-13T22:52:50.364Z,100.00
2019-03-13T22:55:19.643Z,100.00
2019-03-13T22:57:48.791Z,100.00
2019-03-13T23:00:47.966Z,100.00
2019-03-13T23:03:17.922Z,100.00
2019-03-13T23:05:47.061Z,100.00
2019-03-13T23:08:16.259Z,100.00
2019-03-13T23:10:45.511Z,99.83
2019-03-13T23:13:17.242Z,99.99
2019-03-13T23:15:45.532Z,99.84
2019-03-13T23:18:14.664Z,99.70
2019-03-13T23:20:43.793Z,99.80
2019-03-13T23:23:12.898Z,99.22
2019-03-13T23:25:42.016Z,98.99
2019-03-13T23:28:11.174Z,99.49
2019-03-13T23:30:40.507Z,98.57
2019-03-13T23:33:09.705Z,98.48
2019-03-13T23:35:38.899Z,99.03
2019-03-13T23:38:08.049Z,99.18
2019-03-13T23:40:37.246Z,99.25
2019-03-13T23:43:06.419Z,99.14
2019-03-13T23:45:35.624Z,98.51
2019-03-13T23:48:04.781Z,98.19
2019-03-13T23:50:33.944Z,97.55
2019-03-13T23:53:03.076Z,98.06
2019-03-13T23:55:32.723Z,98.43
2019-03-13T23:58:01.947Z,98.64
